New Sweden, Maine
Current Conditions -  °F | °C
As of 4:16 AM on Wednesday 28 Jan 2015 (Local Time) from KCAR Reporting Station
Light Snow Light Snow  
Wind Chill: -7°   Ceiling: 1400
Heat Index: 10°   Visibility: 1.5mi
Dew Point:   Wind: 15mph
Humidity: 80%   Direction: 350°N
Pressure: 29.76"   Gusts: NA
Location:  46.94°N, 68.12°W
Report Text: KCAR 280916Z AUTO 35013KT 1 1/2SM -SN OVC014 M12/M15 A2976 RMK AO2 P0001 T11221150
Loading
Personal Weather Stations






























Interactive Weather Map New forecast layout! Learn more

10-Day Weather Forecast

Advertisements
Track Severe Weather on mobile